createdAt,value
2022-09-28T06:19:56.490Z,1.98
2022-09-28T06:22:34.377Z,2.27
2022-09-28T06:25:11.295Z,2.15
2022-09-28T06:27:44.794Z,2.05
2022-09-28T06:30:17.804Z,2.17
2022-09-28T06:32:52.294Z,3.35
2022-09-28T06:35:26.256Z,2.25
2022-09-28T06:37:59.918Z,2.05
2022-09-28T06:40:33.187Z,1.80
2022-09-28T06:43:10.643Z,2.90
2022-09-28T06:46:05.074Z,1.53
2022-09-28T06:48:50.085Z,2.25
2022-09-28T06:51:25.993Z,1.65
2022-09-28T06:54:06.500Z,1.70
2022-09-28T06:56:43.955Z,1.80
2022-09-28T06:59:17.243Z,1.90
2022-09-28T07:01:51.097Z,1.60
2022-09-28T07:04:28.729Z,1.95
2022-09-28T07:07:19.387Z,1.50
2022-09-28T07:09:56.777Z,1.37
2022-09-28T07:12:49.495Z,1.80
2022-09-28T07:15:30.327Z,1.75
2022-09-28T07:18:05.473Z,1.70
2022-09-28T07:20:51.330Z,1.47
2022-09-28T07:23:18.905Z,1.77
2022-09-28T07:25:50.352Z,1.65
2022-09-28T07:28:38.544Z,1.35
2022-09-28T07:31:22.336Z,1.47
2022-09-28T07:33:56.899Z,2.12
2022-09-28T07:36:39.288Z,2.15
2022-09-28T07:39:12.568Z,1.98
2022-09-28T07:41:45.780Z,1.80
2022-09-28T07:44:22.847Z,2.22
2022-09-28T07:46:57.785Z,1.50
2022-09-28T07:52:26.346Z,1.70
2022-09-28T07:55:19.237Z,1.67
2022-09-28T07:58:03.113Z,1.32
2022-09-28T08:00:38.539Z,1.20
2022-09-28T08:03:11.477Z,1.85
2022-09-28T08:05:46.281Z,1.60
2022-09-28T08:08:20.463Z,1.47
2022-09-28T08:13:31.903Z,1.45
2022-09-28T08:16:16.029Z,1.20
2022-09-28T08:18:59.570Z,1.22
2022-09-28T08:21:47.513Z,1.60
2022-09-28T08:24:21.063Z,1.35
2022-09-28T08:26:55.760Z,1.42
2022-09-28T08:29:32.095Z,2.47
2022-09-28T08:32:10.650Z,1.87
2022-09-28T08:34:55.631Z,1.52
2022-09-28T08:37:39.215Z,1.90
2022-09-28T08:40:31.335Z,2.27
2022-09-28T08:43:08.605Z,2.10
2022-09-28T08:45:55.544Z,2.02
2022-09-28T08:48:56.368Z,2.20
2022-09-28T08:51:27.543Z,1.80
2022-09-28T08:54:23.654Z,1.15
2022-09-28T08:57:04.906Z,0.90
2022-09-28T09:02:26.234Z,1.52
2022-09-28T09:05:06.448Z,1.60
2022-09-28T09:10:51.473Z,1.98
2022-09-28T09:13:51.876Z,1.47
2022-09-28T09:16:33.288Z,1.40
2022-09-28T09:19:13.241Z,1.92
2022-09-28T09:21:52.958Z,1.98
2022-09-28T09:24:29.196Z,1.40
2022-09-28T09:27:11.787Z,1.02
2022-09-28T09:29:57.446Z,1.42
2022-09-28T09:32:40.584Z,1.00
2022-09-28T09:35:56.420Z,1.20
2022-09-28T09:38:45.403Z,1.25
2022-09-28T09:41:47.743Z,1.22
2022-09-28T09:44:54.319Z,1.90
2022-09-28T09:50:15.612Z,1.20
2022-09-28T09:52:54.634Z,1.22
2022-09-28T09:55:36.022Z,1.82
2022-09-28T09:58:31.063Z,1.37
2022-09-28T10:01:17.270Z,1.87
2022-09-28T10:04:02.342Z,1.22
2022-09-28T10:06:38.595Z,1.20
2022-09-28T10:09:17.162Z,1.20
2022-09-28T10:11:52.194Z,1.33
2022-09-28T10:14:27.217Z,1.25
2022-09-28T10:17:08.364Z,1.27
2022-09-28T10:19:59.041Z,1.40
2022-09-28T10:22:51.301Z,1.67
2022-09-28T10:25:24.723Z,1.70
2022-09-28T10:27:59.584Z,1.32
2022-09-28T10:30:35.315Z,1.62
2022-09-28T10:33:11.399Z,1.82
2022-09-28T10:35:46.834Z,2.22
2022-09-28T10:38:22.437Z,2.12
2022-09-28T10:40:59.366Z,1.30
2022-09-28T10:43:58.184Z,1.60
2022-09-28T10:46:31.279Z,1.50
2022-09-28T10:49:07.006Z,1.50
2022-09-28T10:51:45.175Z,1.50
2022-09-28T10:54:21.974Z,2.22
2022-09-28T10:56:57.625Z,2.10
2022-09-28T10:59:43.039Z,2.20
2022-09-28T11:02:33.505Z,3.90
2022-09-28T11:05:08.612Z,2.05
2022-09-28T11:07:49.434Z,2.27
2022-09-28T11:10:26.344Z,2.62
2022-09-28T11:13:13.278Z,2.77
2022-09-28T11:15:53.440Z,2.87
2022-09-28T11:18:32.558Z,2.67
2022-09-28T11:21:17.490Z,2.33
2022-09-28T11:24:09.650Z,3.15
2022-09-28T11:26:46.953Z,2.80
2022-09-28T11:29:36.131Z,3.00
2022-09-28T11:32:29.898Z,3.20
2022-09-28T11:35:22.822Z,2.90
2022-09-28T11:38:31.426Z,2.40
2022-09-28T11:41:21.256Z,3.17
2022-09-28T11:44:34.463Z,2.55
2022-09-28T11:47:22.418Z,2.72
2022-09-28T11:49:59.109Z,3.30
2022-09-28T11:52:35.577Z,3.35
2022-09-28T11:55:13.379Z,2.65
2022-09-28T11:57:52.290Z,3.33
2022-09-28T12:00:25.864Z,2.98
2022-09-28T12:05:47.716Z,3.10
2022-09-28T12:08:27.533Z,3.52
2022-09-28T12:11:15.645Z,3.10
2022-09-28T12:14:09.040Z,3.25
2022-09-28T12:17:04.678Z,3.37
2022-09-28T12:19:22.658Z,2.98
2022-09-28T12:21:58.771Z,2.25
2022-09-28T12:24:36.572Z,2.90
2022-09-28T12:27:14.606Z,2.40
2022-09-28T12:29:51.313Z,2.12
2022-09-28T12:32:29.512Z,2.65
2022-09-28T12:35:02.947Z,2.70
2022-09-28T12:37:42.888Z,2.80
2022-09-28T12:43:54.789Z,3.45
2022-09-28T12:46:38.667Z,2.20
2022-09-28T12:50:27.247Z,2.30
2022-09-28T12:52:10.797Z,2.30
2022-09-28T12:54:58.070Z,3.67
2022-09-28T12:57:41.123Z,3.22
2022-09-28T13:00:17.354Z,2.90
2022-09-28T13:03:08.446Z,2.50
2022-09-28T13:09:31.423Z,3.20
2022-09-28T13:12:14.367Z,2.65
2022-09-28T13:15:27.582Z,2.85
2022-09-28T13:20:51.641Z,3.10
2022-09-28T13:23:28.049Z,2.50
2022-09-28T13:26:04.589Z,2.50
2022-09-28T13:28:41.947Z,2.40
2022-09-28T13:31:16.711Z,2.17
2022-09-28T13:33:51.226Z,2.17
2022-09-28T13:36:47.840Z,2.05
2022-09-28T13:39:38.681Z,2.10
2022-09-28T13:42:13.660Z,2.52
2022-09-28T13:48:08.815Z,2.67
2022-09-28T13:51:17.352Z,1.60
2022-09-28T13:57:14.316Z,2.15
2022-09-28T13:59:53.958Z,1.70
2022-09-28T14:02:32.770Z,2.00
2022-09-28T14:05:10.261Z,2.20
2022-09-28T14:08:01.926Z,2.17
2022-09-28T14:11:22.809Z,2.27
2022-09-28T14:14:03.557Z,2.22
2022-09-28T14:16:40.148Z,2.47
2022-09-28T14:19:16.012Z,1.95
2022-09-28T14:22:06.843Z,1.95
2022-09-28T14:24:59.317Z,2.25
2022-09-28T14:31:32.279Z,2.08
2022-09-28T14:34:07.631Z,2.45
2022-09-28T14:37:01.102Z,2.08
2022-09-28T14:39:57.151Z,2.35
2022-09-28T14:42:30.546Z,2.10
2022-09-28T14:45:29.800Z,1.95
2022-09-28T14:48:23.111Z,2.40
2022-09-28T14:50:57.390Z,1.90
2022-09-28T14:53:33.317Z,2.40
2022-09-28T14:56:09.306Z,2.95
2022-09-28T14:58:43.583Z,1.95
2022-09-28T15:01:20.281Z,2.22
2022-09-28T15:03:56.634Z,2.12
2022-09-28T15:06:30.909Z,2.33
2022-09-28T15:09:06.096Z,2.15
2022-09-28T15:11:43.161Z,2.40
2022-09-28T15:14:16.829Z,2.53
2022-09-28T15:16:50.149Z,2.45
2022-09-28T15:22:16.888Z,2.62
2022-09-28T15:25:02.047Z,2.75
2022-09-28T15:27:38.418Z,3.90
2022-09-28T15:33:45.013Z,3.80
2022-09-28T15:36:21.991Z,3.30
2022-09-28T15:39:01.998Z,3.65
2022-09-28T15:41:35.921Z,3.98
2022-09-28T15:44:29.765Z,4.05
2022-09-28T15:47:13.719Z,4.30
2022-09-28T15:49:50.830Z,3.98
2022-09-28T15:52:38.485Z,3.67
2022-09-28T15:55:23.201Z,4.87
2022-09-28T15:58:18.461Z,4.78
2022-09-28T16:00:54.720Z,4.55
2022-09-28T16:03:31.328Z,4.60
2022-09-28T16:06:12.138Z,4.83
2022-09-28T16:08:48.363Z,4.95
2022-09-28T16:11:26.484Z,5.55
2022-09-28T16:14:08.568Z,5.67
2022-09-28T16:16:47.030Z,5.55
2022-09-28T16:22:07.556Z,5.25
2022-09-28T16:24:41.932Z,6.72
2022-09-28T16:27:28.811Z,5.87
2022-09-28T16:30:19.070Z,5.95
2022-09-28T16:32:58.334Z,6.08
2022-09-28T16:35:33.524Z,5.20
2022-09-28T16:38:12.866Z,5.20
2022-09-28T16:40:48.226Z,4.72
2022-09-28T16:43:26.817Z,4.90
2022-09-28T16:46:02.707Z,3.60
2022-09-28T16:48:39.686Z,3.70
2022-09-28T16:51:12.908Z,4.42
2022-09-28T16:54:05.820Z,4.15
2022-09-28T16:56:42.994Z,3.72
2022-09-28T16:59:30.946Z,3.75
2022-09-28T17:02:14.758Z,3.77
2022-09-28T17:04:47.826Z,3.95
2022-09-28T17:07:22.270Z,3.80
2022-09-28T17:09:56.336Z,4.12
2022-09-28T17:12:34.299Z,3.58
2022-09-28T17:17:39.279Z,5.50
2022-09-28T17:20:22.968Z,5.15
2022-09-28T17:23:03.768Z,4.87
2022-09-28T17:25:37.595Z,5.08
2022-09-28T17:28:15.744Z,4.83
2022-09-28T17:30:50.868Z,4.87
2022-09-28T17:33:28.277Z,4.87
2022-09-28T17:36:05.224Z,5.15
2022-09-28T17:38:42.062Z,4.67
2022-09-28T17:41:20.397Z,5.05
2022-09-28T17:43:52.080Z,6.33
2022-09-28T17:46:29.927Z,5.50
2022-09-28T17:51:38.468Z,4.80
2022-09-28T17:54:13.114Z,6.08
2022-09-28T17:56:46.313Z,6.25
2022-09-28T17:59:22.214Z,5.00
2022-09-28T18:01:57.517Z,5.90
2022-09-28T18:04:50.671Z,7.67
2022-09-28T18:07:08.423Z,6.15
2022-09-28T18:09:41.649Z,5.90
2022-09-28T18:12:14.682Z,5.35
2022-09-28T18:14:49.998Z,4.80
2022-09-28T18:17:24.518Z,4.75
2022-09-28T18:19:57.643Z,5.30
2022-09-28T18:22:30.595Z,4.92
2022-09-28T18:25:06.264Z,4.45
2022-09-28T18:27:44.207Z,4.92
2022-09-28T18:30:17.144Z,4.70
2022-09-28T18:32:50.224Z,5.22
2022-09-28T18:35:26.212Z,4.95
2022-09-28T18:37:59.179Z,4.90
2022-09-28T18:40:33.009Z,5.90
2022-09-28T18:43:07.717Z,6.28
2022-09-28T18:45:42.333Z,6.33
2022-09-28T18:48:15.115Z,6.78
2022-09-28T18:50:48.159Z,7.00
2022-09-28T18:53:23.858Z,7.15
2022-09-28T18:55:58.939Z,5.85
2022-09-28T18:58:33.334Z,6.30
2022-09-28T19:01:31.520Z,5.47
2022-09-28T19:03:46.898Z,5.72
2022-09-28T19:06:20.105Z,6.05
2022-09-28T19:08:56.369Z,6.50
2022-09-28T19:11:29.806Z,5.47
2022-09-28T19:14:03.829Z,5.42
2022-09-28T19:16:41.956Z,6.22
2022-09-28T19:19:16.663Z,5.37
2022-09-28T19:21:50.325Z,6.55
2022-09-28T19:24:23.474Z,5.80
2022-09-28T19:26:56.737Z,5.30
2022-09-28T19:29:29.920Z,4.83
2022-09-28T19:32:03.119Z,5.62
2022-09-28T19:34:36.105Z,6.08
2022-09-28T19:37:10.953Z,6.28
2022-09-28T19:39:46.127Z,5.17
2022-09-28T19:42:19.142Z,5.53
2022-09-28T19:44:52.522Z,5.42
2022-09-28T19:47:25.693Z,5.40
2022-09-28T19:49:58.613Z,5.83
2022-09-28T19:52:31.762Z,6.25
2022-09-28T19:55:04.894Z,6.03
2022-09-28T19:57:37.853Z,6.72
2022-09-28T20:00:13.507Z,5.62
2022-09-28T20:02:46.509Z,5.30
2022-09-28T20:05:19.519Z,6.10
2022-09-28T20:07:52.469Z,5.75
2022-09-28T20:10:25.365Z,5.60
2022-09-28T20:12:59.104Z,6.83
2022-09-28T20:15:32.199Z,6.60
2022-09-28T20:18:05.328Z,6.72
2022-09-28T20:20:38.265Z,7.08
2022-09-28T20:23:11.802Z,7.62
2022-09-28T20:25:44.735Z,6.90
2022-09-28T20:28:17.723Z,7.65
2022-09-28T20:30:50.636Z,6.92
2022-09-28T20:33:28.924Z,7.08
2022-09-28T20:35:59.460Z,6.55
2022-09-28T20:38:32.495Z,7.00
2022-09-28T20:41:06.231Z,5.70
2022-09-28T20:43:40.525Z,6.22
2022-09-28T20:46:14.636Z,5.47
2022-09-28T20:48:49.479Z,6.17
2022-09-28T20:51:23.333Z,7.12
2022-09-28T20:53:57.712Z,6.17
2022-09-28T20:56:33.812Z,6.33
2022-09-28T20:59:08.595Z,5.83
2022-09-28T21:01:42.090Z,5.20
2022-09-28T21:04:15.592Z,5.60
2022-09-28T21:06:48.911Z,6.35
2022-09-28T21:09:21.950Z,5.92
2022-09-28T21:11:55.196Z,6.08
2022-09-28T21:14:29.881Z,6.50
2022-09-28T21:17:02.736Z,6.28
2022-09-28T21:19:35.709Z,6.53
2022-09-28T21:22:08.722Z,6.50
2022-09-28T21:24:41.779Z,5.58
2022-09-28T21:27:14.742Z,6.40
2022-09-28T21:29:47.712Z,5.67
2022-09-28T21:32:24.279Z,6.33
2022-09-28T21:34:58.423Z,6.12
2022-09-28T21:37:31.348Z,6.95
2022-09-28T21:40:06.616Z,5.87
2022-09-28T21:42:40.700Z,6.92
2022-09-28T21:45:13.780Z,6.50
2022-09-28T21:47:50.093Z,6.17
2022-09-28T21:50:25.903Z,5.70
2022-09-28T21:53:06.448Z,6.62
2022-09-28T21:55:40.177Z,5.92
2022-09-28T21:58:13.130Z,6.08
2022-09-28T22:00:46.047Z,6.08
2022-09-28T22:03:18.867Z,6.05
2022-09-28T22:05:53.879Z,6.12
2022-09-28T22:08:26.918Z,6.25
2022-09-28T22:11:05.861Z,5.15
2022-09-28T22:13:41.468Z,5.58
2022-09-28T22:16:15.633Z,6.67
2022-09-28T22:18:49.138Z,6.30
2022-09-28T22:21:23.972Z,6.85
2022-09-28T22:24:01.987Z,6.17
2022-09-28T22:26:37.224Z,6.95
2022-09-28T22:29:11.485Z,6.22
2022-09-28T22:31:44.352Z,5.20
2022-09-28T22:34:17.304Z,6.25
2022-09-28T22:36:50.206Z,6.50
2022-09-28T22:39:23.014Z,5.83
2022-09-28T22:41:55.869Z,6.00
2022-09-28T22:44:28.777Z,5.53
2022-09-28T22:47:02.191Z,5.03
2022-09-28T22:49:35.310Z,5.20
2022-09-28T22:52:08.897Z,5.30
2022-09-28T22:54:41.703Z,5.35
2022-09-28T22:57:17.309Z,4.70
2022-09-28T22:59:50.129Z,5.47
2022-09-28T23:02:23.060Z,5.53
2022-09-28T23:04:55.945Z,6.17
2022-09-28T23:07:28.765Z,5.10
2022-09-28T23:10:01.591Z,6.08
2022-09-28T23:12:47.899Z,5.30
2022-09-28T23:15:31.733Z,5.62
2022-09-28T23:18:10.653Z,4.97
2022-09-28T23:20:45.011Z,5.42
2022-09-28T23:23:18.003Z,5.55
2022-09-28T23:25:51.250Z,5.55
2022-09-28T23:28:26.315Z,5.10
2022-09-28T23:31:02.103Z,5.00
2022-09-28T23:33:34.977Z,5.92
2022-09-28T23:36:09.399Z,5.83
2022-09-28T23:38:42.199Z,5.95
2022-09-28T23:41:15.065Z,6.00
2022-09-28T23:43:47.944Z,6.30
2022-09-28T23:46:21.427Z,5.45
2022-09-28T23:48:54.828Z,5.80
2022-09-28T23:51:27.728Z,5.67
2022-09-28T23:54:02.295Z,5.75
2022-09-28T23:56:35.516Z,6.40
2022-09-28T23:59:08.449Z,5.55
